Glory Ocean — 9VDE7 — position and weather

sailwx.info

Track history (hours):
 
Tides and Currents Weather Stations Pressure Air Temp Water Temp Dewpoint Dewpoint Depression Visibility Wind Speed Wind Dir Waves Ship Positions

Glory Ocean

Last reported at 2017-Feb-24 01:33 UTC. Time now 2017-Feb-24 08:11 UTC.
Position N 42°17' W 069°59'.

Length 139 m; draft 5.9 m.

Type: Cargo ship. MMSI: 564700000.

Date/timePositionNaut miles runAvg speedWind from/ knotsBaromVisibWave heightAir tempDewpointWater temp
2017-Feb-24 01:33N 42°17' W 069°59'10 9.8
2017-Feb-24 00:33N 42°18' W 070°12'10 9.6
2017-Feb-23 23:33N 42°19' W 070°25'10 9.7
2017-Feb-23 22:33N 42°20' W 070°38'9 9.4
2017-Feb-23 21:34N 42°23' W 070°50'9 9.3
2017-Feb-23 20:33N 42°21' W 071°02'2 2.1
2017-Feb-23 19:32N 42°23' W 071°04'0 0.0
2017-Feb-23 18:29N 42°23' W 071°04'0 0.0
2017-Feb-23 17:29N 42°23' W 071°04'0 0.0
2017-Feb-23 16:29N 42°23' W 071°04'0 0.0
2017-Feb-23 15:29N 42°23' W 071°04'0 0.0
2017-Feb-23 14:29N 42°23' W 071°04'0 0.0
2017-Feb-23 13:23N 42°23' W 071°04'0 0.0
2017-Feb-23 12:29N 42°23' W 071°04'0 0.0
2017-Feb-23 11:29N 42°23' W 071°04'0 0.0
2017-Feb-23 10:29N 42°23' W 071°04'0 0.0
2017-Feb-23 09:32N 42°23' W 071°04'0 0.0
2017-Feb-23 08:32N 42°23' W 071°04'0 0.0
2017-Feb-23 07:33N 42°23' W 071°04'0 0.0
2017-Feb-23 06:33N 42°23' W 071°04'0 0.0
2017-Feb-23 05:30N 42°23' W 071°04'0 0.0
2017-Feb-23 04:30N 42°23' W 071°04'0 0.0
2017-Feb-23 03:33N 42°23' W 071°04'0 0.0
2017-Feb-23 02:30N 42°23' W 071°04'0 0.0
2017-Feb-23 01:30N 42°23' W 071°04'0 0.0
2017-Feb-23 00:30N 42°23' W 071°04'0 0.0
2017-Feb-22 23:30N 42°23' W 071°04'0 0.0
2017-Feb-22 22:30N 42°23' W 071°04'0 0.0
2017-Feb-22 21:30N 42°23' W 071°04'0 0.0
2017-Feb-22 20:30N 42°23' W 071°04'0 0.0
2017-Feb-22 19:30N 42°23' W 071°04'0 0.0
2017-Feb-22 18:30N 42°23' W 071°04'0 0.0
2017-Feb-22 17:18N 42°23' W 071°04'0 0.0
2017-Feb-22 16:30N 42°23' W 071°04'0 0.0
2017-Feb-22 15:30N 42°23' W 071°04'0 0.0
2017-Feb-22 14:30N 42°23' W 071°04'0 0.0
2017-Feb-22 13:24N 42°23' W 071°04'0 0.0
2017-Feb-22 12:30N 42°23' W 071°04'0 0.0
2017-Feb-22 11:24N 42°23' W 071°04'0 0.0
2017-Feb-22 10:33N 42°23' W 071°04'0 0.0
2017-Feb-22 09:33N 42°23' W 071°04'0 0.0
2017-Feb-22 08:33N 42°23' W 071°04'0 0.0
2017-Feb-22 07:33N 42°23' W 071°04'0 0.0
2017-Feb-22 06:33N 42°23' W 071°04'0 0.0
2017-Feb-22 05:33N 42°23' W 071°04'0 0.0
2017-Feb-22 04:30N 42°23' W 071°04'0 0.0
2017-Feb-22 03:30N 42°23' W 071°04'0 0.0
2017-Feb-22 02:24N 42°23' W 071°04'0 0.0
2017-Feb-22 01:30N 42°23' W 071°04'0 0.0
2017-Feb-22 00:30N 42°23' W 071°04'0 0.0
2017-Feb-21 23:30N 42°23' W 071°04'0 0.0
2017-Feb-21 22:30N 42°23' W 071°04'0 0.0
2017-Feb-21 21:33N 42°23' W 071°04'0 0.0
2017-Feb-21 20:30N 42°23' W 071°04'0 0.0
2017-Feb-21 19:30N 42°23' W 071°04'0 0.0
2017-Feb-21 18:30N 42°23' W 071°04'0 0.0
2017-Feb-21 17:33N 42°23' W 071°04'0 0.0
2017-Feb-21 16:33N 42°23' W 071°04'0 0.0
2017-Feb-21 15:18N 42°23' W 071°04'0 0.0
2017-Feb-21 14:30N 42°23' W 071°04'0 0.0
2017-Feb-21 13:12N 42°23' W 071°04'0 0.0
2017-Feb-21 12:30N 42°23' W 071°04'0 0.0
2017-Feb-21 11:30N 42°23' W 071°04'0 0.0
2017-Feb-21 10:24N 42°23' W 071°04'0 0.0
2017-Feb-21 09:30N 42°23' W 071°04'0 0.0
2017-Feb-21 08:30N 42°23' W 071°04'0 0.0
2017-Feb-21 07:30N 42°23' W 071°04'0 0.0
2017-Feb-21 06:30N 42°23' W 071°04'0 0.0
2017-Feb-21 05:33N 42°23' W 071°04'0 0.0
2017-Feb-21 04:30N 42°23' W 071°04'0 0.0
2017-Feb-21 03:30N 42°23' W 071°04'0 0.0
2017-Feb-21 02:30N 42°23' W 071°04'0 0.0
2017-Feb-21 01:30N 42°23' W 071°04'0 0.0
2017-Feb-21 00:30N 42°23' W 071°04'0 0.0
2017-Feb-20 23:30N 42°23' W 071°04'0 0.0
2017-Feb-20 22:30N 42°23' W 071°04'0 0.0
2017-Feb-20 21:33N 42°23' W 071°04'0 0.0
2017-Feb-20 20:33N 42°23' W 071°04'2 2.2
2017-Feb-20 19:33N 42°21' W 071°02'9 8.8
2017-Feb-20 18:33N 42°24' W 070°51'9 9.3
2017-Feb-20 17:33N 42°22' W 070°38'9 9.5
2017-Feb-20 16:33N 42°21' W 070°25'9 8.6
2017-Feb-20 15:33N 42°20' W 070°14'1010.0
2017-Feb-20 14:33N 42°19' W 070°00'  
Track history (hours):
 
Tides and Currents Weather Stations Pressure Air Temp Water Temp Dewpoint Dewpoint Depression Visibility Wind Speed Wind Dir Waves Ship Positions

Glory Ocean

Last reported at 2017-Feb-24 01:33 UTC. Time now 2017-Feb-24 08:11 UTC.
Position N 42°17' W 069°59'.

Length 139 m; draft 5.9 m.

Type: Cargo ship. MMSI: 564700000.

Date/timePositionNaut miles runAvg speedWind from/ knotsBaromVisibWave heightAir tempDewpointWater temp
2017-Feb-24 01:33N 42°17' W 069°59'10 9.8
2017-Feb-24 00:33N 42°18' W 070°12'10 9.6
2017-Feb-23 23:33N 42°19' W 070°25'10 9.7
2017-Feb-23 22:33N 42°20' W 070°38'9 9.4
2017-Feb-23 21:34N 42°23' W 070°50'9 9.3
2017-Feb-23 20:33N 42°21' W 071°02'2 2.1
2017-Feb-23 19:32N 42°23' W 071°04'0 0.0
2017-Feb-23 18:29N 42°23' W 071°04'0 0.0
2017-Feb-23 17:29N 42°23' W 071°04'0 0.0
2017-Feb-23 16:29N 42°23' W 071°04'0 0.0
2017-Feb-23 15:29N 42°23' W 071°04'0 0.0
2017-Feb-23 14:29N 42°23' W 071°04'0 0.0
2017-Feb-23 13:23N 42°23' W 071°04'0 0.0
2017-Feb-23 12:29N 42°23' W 071°04'0 0.0
2017-Feb-23 11:29N 42°23' W 071°04'0 0.0
2017-Feb-23 10:29N 42°23' W 071°04'0 0.0
2017-Feb-23 09:32N 42°23' W 071°04'0 0.0
2017-Feb-23 08:32N 42°23' W 071°04'0 0.0
2017-Feb-23 07:33N 42°23' W 071°04'0 0.0
2017-Feb-23 06:33N 42°23' W 071°04'0 0.0
2017-Feb-23 05:30N 42°23' W 071°04'0 0.0
2017-Feb-23 04:30N 42°23' W 071°04'0 0.0
2017-Feb-23 03:33N 42°23' W 071°04'0 0.0
2017-Feb-23 02:30N 42°23' W 071°04'0 0.0
2017-Feb-23 01:30N 42°23' W 071°04'0 0.0
2017-Feb-23 00:30N 42°23' W 071°04'0 0.0
2017-Feb-22 23:30N 42°23' W 071°04'0 0.0
2017-Feb-22 22:30N 42°23' W 071°04'0 0.0
2017-Feb-22 21:30N 42°23' W 071°04'0 0.0
2017-Feb-22 20:30N 42°23' W 071°04'0 0.0
2017-Feb-22 19:30N 42°23' W 071°04'0 0.0
2017-Feb-22 18:30N 42°23' W 071°04'0 0.0
2017-Feb-22 17:18N 42°23' W 071°04'0 0.0
2017-Feb-22 16:30N 42°23' W 071°04'0 0.0
2017-Feb-22 15:30N 42°23' W 071°04'0 0.0
2017-Feb-22 14:30N 42°23' W 071°04'0 0.0
2017-Feb-22 13:24N 42°23' W 071°04'0 0.0
2017-Feb-22 12:30N 42°23' W 071°04'0 0.0
2017-Feb-22 11:24N 42°23' W 071°04'0 0.0
2017-Feb-22 10:33N 42°23' W 071°04'0 0.0
2017-Feb-22 09:33N 42°23' W 071°04'0 0.0
2017-Feb-22 08:33N 42°23' W 071°04'0 0.0
2017-Feb-22 07:33N 42°23' W 071°04'0 0.0
2017-Feb-22 06:33N 42°23' W 071°04'0 0.0
2017-Feb-22 05:33N 42°23' W 071°04'0 0.0
2017-Feb-22 04:30N 42°23' W 071°04'0 0.0
2017-Feb-22 03:30N 42°23' W 071°04'0 0.0
2017-Feb-22 02:24N 42°23' W 071°04'0 0.0
2017-Feb-22 01:30N 42°23' W 071°04'0 0.0
2017-Feb-22 00:30N 42°23' W 071°04'0 0.0
2017-Feb-21 23:30N 42°23' W 071°04'0 0.0
2017-Feb-21 22:30N 42°23' W 071°04'0 0.0
2017-Feb-21 21:33N 42°23' W 071°04'0 0.0
2017-Feb-21 20:30N 42°23' W 071°04'0 0.0
2017-Feb-21 19:30N 42°23' W 071°04'0 0.0
2017-Feb-21 18:30N 42°23' W 071°04'0 0.0
2017-Feb-21 17:33N 42°23' W 071°04'0 0.0
2017-Feb-21 16:33N 42°23' W 071°04'0 0.0
2017-Feb-21 15:18N 42°23' W 071°04'0 0.0
2017-Feb-21 14:30N 42°23' W 071°04'0 0.0
2017-Feb-21 13:12N 42°23' W 071°04'0 0.0
2017-Feb-21 12:30N 42°23' W 071°04'0 0.0
2017-Feb-21 11:30N 42°23' W 071°04'0 0.0
2017-Feb-21 10:24N 42°23' W 071°04'0 0.0
2017-Feb-21 09:30N 42°23' W 071°04'0 0.0
2017-Feb-21 08:30N 42°23' W 071°04'0 0.0
2017-Feb-21 07:30N 42°23' W 071°04'0 0.0
2017-Feb-21 06:30N 42°23' W 071°04'0 0.0
2017-Feb-21 05:33N 42°23' W 071°04'0 0.0
2017-Feb-21 04:30N 42°23' W 071°04'0 0.0
2017-Feb-21 03:30N 42°23' W 071°04'0 0.0
2017-Feb-21 02:30N 42°23' W 071°04'0 0.0
2017-Feb-21 01:30N 42°23' W 071°04'0 0.0
2017-Feb-21 00:30N 42°23' W 071°04'0 0.0
2017-Feb-20 23:30N 42°23' W 071°04'0 0.0
2017-Feb-20 22:30N 42°23' W 071°04'0 0.0
2017-Feb-20 21:33N 42°23' W 071°04'0 0.0
2017-Feb-20 20:33N 42°23' W 071°04'2 2.2
2017-Feb-20 19:33N 42°21' W 071°02'9 8.8
2017-Feb-20 18:33N 42°24' W 070°51'9 9.3
2017-Feb-20 17:33N 42°22' W 070°38'9 9.5
2017-Feb-20 16:33N 42°21' W 070°25'9 8.6
2017-Feb-20 15:33N 42°20' W 070°14'1010.0
2017-Feb-20 14:33N 42°19' W 070°00'  

Dump ship's entire track history